Time;durP1;ratioP1;P1;durP2;ratioP2;P2;SDS_P1;SDS_P2;PMS_P1;PMS_P2;Temp;Humidity;BMP_temperature;BMP_pressure;BME280_temperature;BME280_humidity;BME280_pressure;Samples;Min_cycle;Max_cycle;Signal;HPM_P1;HPM_P2
2021/01/09 00:00:16;;;;;;;;;;;19.60;79.00;;;19.39;59.78;97689.84;5001099;28;19913;-80
2021/01/09 00:02:42;;;;;;;;;;;19.60;78.90;;;19.37;59.62;97691.19;5017352;28;19919;-81
2021/01/09 00:05:10;;;;;;;;;;;19.60;78.90;;;19.32;59.85;97699.25;5017418;28;19976;-81
2021/01/09 00:07:36;;;;;;;;;;;19.60;78.90;;;19.30;59.83;97691.28;5017432;28;20375;-81
2021/01/09 00:10:08;;;;;;;;;;;19.50;79.10;;;19.28;59.74;97693.41;5001059;28;19913;-81
2021/01/09 00:12:58;;;;;;;;;;;19.60;79.40;;;19.30;59.88;97695.91;5017501;28;19917;-81
2021/01/09 00:15:23;;;;;;;;;;;19.60;78.70;;;19.24;59.51;97691.41;5032834;28;19923;-82
2021/01/09 00:17:49;;;;;;;;;;;19.60;79.20;;;19.26;59.69;97701.03;4984768;28;19917;-81
2021/01/09 00:20:16;;;;;;;;;;;19.50;78.30;;;19.28;59.80;97698.03;5017031;28;20027;-81
2021/01/09 00:22:42;;;;;;;;;;;19.60;78.30;;;19.19;59.89;97705.75;5017100;28;19928;-81
2021/01/09 00:25:11;;;;;;;;;;;19.60;78.60;;;19.22;59.68;97705.31;5017267;28;19967;-81
2021/01/09 00:27:37;;;;;;;;;;;19.60;78.90;;;19.19;59.85;97707.66;5001340;28;19924;-81
2021/01/09 00:30:05;;;;;;;;;;;19.50;78.90;;;19.24;60.59;97707.78;5017101;28;19921;-81
2021/01/09 00:32:31;;;;;;;;;;;19.50;80.40;;;19.30;60.39;97702.22;5017488;28;20363;-81
2021/01/09 00:34:57;;;;;;;;;;;19.50;80.20;;;19.28;60.67;97707.06;5000589;28;19913;-81
2021/01/09 00:37:28;;;;;;;;;;;19.50;81.70;;;19.37;60.78;97710.28;5000622;28;19927;-81
2021/01/09 00:39:54;;;;;;;;;;;19.60;81.40;;;19.27;60.56;97699.97;5000569;28;19909;-81
2021/01/09 00:42:20;;;;;;;;;;;19.50;80.60;;;19.34;60.21;97697.94;4984299;28;19917;-81
2021/01/09 00:44:46;;;;;;;;;;;19.50;79.50;;;19.30;60.04;97699.47;4984035;28;19909;-81
2021/01/09 00:47:12;;;;;;;;;;;19.50;79.60;;;19.22;60.25;97704.47;5000307;28;19913;-81
2021/01/09 00:49:38;;;;;;;;;;;19.50;79.50;;;19.27;59.94;97701.84;5000353;28;20004;-81
2021/01/09 00:52:04;;;;;;;;;;;19.50;79.40;;;19.17;59.98;97690.69;5000459;28;19925;-81
2021/01/09 00:54:31;;;;;;;;;;;19.50;78.90;;;19.17;60.13;97696.97;4984667;28;19919;-82
2021/01/09 00:56:57;;;;;;;;;;;19.50;79.30;;;19.20;60.17;97701.97;4985083;28;19908;-83
2021/01/09 00:59:23;;;;;;;;;;;19.50;78.90;;;19.19;59.91;97707.66;5033629;28;19920;-82
2021/01/09 01:01:50;;;;;;;;;;;19.50;78.50;;;19.16;60.28;97705.41;5000653;28;20385;-82
2021/01/09 01:04:16;;;;;;;;;;;19.50;78.60;;;19.19;60.67;97713.13;5000217;28;20359;-81
2021/01/09 01:06:42;;;;;;;;;;;19.50;79.50;;;19.25;60.51;97713.00;4983662;28;20078;-82
2021/01/09 01:09:10;;;;;;;;;;;19.50;79.60;;;19.29;60.56;97725.09;4984105;28;20414;-81
2021/01/09 01:11:36;;;;;;;;;;;19.50;80.40;;;19.35;60.32;97724.16;4983755;28;19913;-82
2021/01/09 01:14:03;;;;;;;;;;;19.50;80.50;;;19.37;59.92;97727.50;4983664;28;19917;-81
2021/01/09 01:16:28;;;;;;;;;;;19.50;80.50;;;19.30;59.70;97723.22;4998933;28;19920;-81
2021/01/09 01:18:55;;;;;;;;;;;19.50;80.10;;;19.30;60.34;97739.59;4983519;28;19913;-81
2021/01/09 01:21:21;;;;;;;;;;;19.50;80.20;;;19.29;60.52;97732.47;5000084;28;19913;-82
2021/01/09 01:23:47;;;;;;;;;;;19.50;80.50;;;19.27;60.30;97726.44;5000026;28;20011;-81
2021/01/09 01:26:13;;;;;;;;;;;19.50;80.40;;;19.32;60.37;97732.84;5016252;28;20007;-81
2021/01/09 01:28:40;;;;;;;;;;;19.50;80.50;;;19.28;60.34;97719.88;4983169;28;20306;-80
2021/01/09 01:31:08;;;;;;;;;;;19.50;80.80;;;19.30;60.49;97740.41;4999686;28;19967;-80
2021/01/09 01:33:36;;;;;;;;;;;19.50;80.90;;;19.31;60.16;97742.09;4999749;28;19909;-81
2021/01/09 01:36:02;;;;;;;;;;;19.50;80.60;;;19.34;60.54;97741.59;5000060;28;20024;-81
2021/01/09 01:38:28;;;;;;;;;;;19.50;81.10;;;19.31;60.31;97738.53;4982788;28;19999;-80
2021/01/09 01:41:07;;;;;;;;;;;19.50;81.00;;;19.36;60.72;97744.09;4999323;28;20011;-81
2021/01/09 01:43:35;;;;;;;;;;;19.50;81.00;;;19.32;60.81;97742.94;5000342;28;19924;-81
2021/01/09 01:46:03;;;;;;;;;;;19.50;82.10;;;19.28;60.59;97736.25;5015536;28;20267;-80
2021/01/09 01:48:30;;;;;;;;;;;19.50;81.40;;;19.26;60.70;97739.25;4983388;28;20359;-80
2021/01/09 01:50:56;;;;;;;;;;;19.50;81.00;;;19.33;60.72;97739.09;4999182;28;19913;-79
2021/01/09 01:53:22;;;;;;;;;;;19.50;81.30;;;19.26;60.66;97731.03;4982960;28;20015;-79
2021/01/09 01:55:50;;;;;;;;;;;19.50;81.90;;;19.21;61.03;97732.81;4999186;28;19944;-79
2021/01/09 01:58:16;;;;;;;;;;;19.50;81.90;;;19.21;60.88;97727.38;4998947;28;20279;-79
2021/01/09 02:00:49;;;;;;;;;;;19.50;81.40;;;19.26;60.86;97724.75;4998959;28;19936;-79
2021/01/09 02:03:19;;;;;;;;;;;19.60;81.10;;;19.23;61.25;97734.22;5032498;28;20714;-79
2021/01/09 02:06:08;;;;;;;;;;;19.50;81.50;;;19.22;61.09;97737.22;5000004;28;19917;-79
2021/01/09 02:08:49;;;;;;;;;;;19.50;81.70;;;19.24;61.28;97741.34;4984298;28;19921;-79
2021/01/09 02:11:42;;;;;;;;;;;19.60;82.20;;;19.33;60.88;97745.41;5001449;28;19924;-80
2021/01/09 02:14:21;;;;;;;;;;;19.60;81.20;;;19.27;61.18;97734.63;5004787;28;20007;-80
2021/01/09 02:16:48;;;;;;;;;;;19.60;81.90;;;19.24;60.64;97737.78;4983857;28;19913;-80
2021/01/09 02:19:14;;;;;;;;;;;19.60;80.70;;;19.29;61.01;97741.47;4998679;28;20428;-80
2021/01/09 02:21:41;;;;;;;;;;;19.60;80.80;;;19.35;60.81;97736.97;4982604;28;19913;-81
2021/01/09 02:24:16;;;;;;;;;;;19.50;80.00;;;19.29;61.07;97737.91;4999135;28;19913;-81
2021/01/09 02:26:43;;;;;;;;;;;19.50;80.70;;;19.34;60.73;97741.59;5016173;28;19966;-79
2021/01/09 02:29:13;;;;;;;;;;;19.50;80.60;;;19.34;60.45;97752.53;5016567;28;20011;-80
2021/01/09 02:31:50;;;;;;;;;;;19.50;80.30;;;19.29;60.48;97743.38;5003262;28;19913;-81
2021/01/09 02:34:17;;;;;;;;;;;19.50;81.80;;;19.41;60.70;97739.59;5005046;28;19988;-79
2021/01/09 02:36:43;;;;;;;;;;;19.50;81.20;;;19.42;60.44;97740.44;5002811;28;19920;-80
2021/01/09 02:39:09;;;;;;;;;;;19.50;81.80;;;19.31;60.49;97741.25;4986553;28;19935;-81
2021/01/09 02:41:36;;;;;;;;;;;19.50;81.00;;;19.27;60.56;97730.00;4986337;28;19913;-81
2021/01/09 02:44:09;;;;;;;;;;;19.50;80.70;;;19.27;60.83;97740.91;4986583;28;19917;-80
2021/01/09 02:46:37;;;;;;;;;;;19.50;80.40;;;19.22;60.93;97731.75;5019137;28;19913;-81
2021/01/09 02:49:04;;;;;;;;;;;19.50;80.60;;;19.25;60.35;97734.00;5002859;28;19920;-80
2021/01/09 02:51:30;;;;;;;;;;;19.50;80.40;;;19.26;60.66;97730.22;5018714;28;19920;-80
2021/01/09 02:53:56;;;;;;;;;;;19.50;80.60;;;19.22;60.09;97734.50;5002324;28;19916;-80
2021/01/09 02:56:22;;;;;;;;;;;19.50;80.30;;;19.17;61.34;97740.63;4986251;28;20338;-81
2021/01/09 02:58:48;;;;;;;;;;;19.50;80.30;;;19.16;61.04;97741.72;5002525;28;20000;-81
2021/01/09 03:01:14;;;;;;;;;;;19.50;80.40;;;19.15;60.76;97736.50;4985790;28;19966;-81
2021/01/09 03:03:40;;;;;;;;;;;19.50;80.80;;;19.18;60.87;97736.84;5002449;28;20004;-81
2021/01/09 03:06:06;;;;;;;;;;;19.50;80.70;;;19.12;61.09;97732.31;5034909;28;19913;-80
2021/01/09 03:08:32;;;;;;;;;;;19.50;80.20;;;19.20;60.89;97745.63;5001675;28;19923;-81
2021/01/09 03:10:58;;;;;;;;;;;19.50;80.70;;;19.13;61.18;97736.72;5002285;28;19967;-81
2021/01/09 03:13:23;;;;;;;;;;;19.50;81.00;;;19.18;61.26;97744.19;4986054;28;19921;-81
2021/01/09 03:15:49;;;;;;;;;;;19.50;81.70;;;19.12;61.46;97743.22;5002054;28;19920;-80
2021/01/09 03:18:15;;;;;;;;;;;19.50;81.80;;;19.13;61.43;97742.16;4985814;28;19913;-81
2021/01/09 03:20:41;;;;;;;;;;;19.50;81.90;;;19.18;61.23;97746.91;5018070;28;20476;-80
2021/01/09 03:23:07;;;;;;;;;;;19.50;81.40;;;19.29;60.69;97754.28;4985586;28;19920;-81
2021/01/09 03:25:33;;;;;;;;;;;19.50;81.00;;;19.25;60.68;97753.13;5001735;28;19913;-80
2021/01/09 03:27:59;;;;;;;;;;;19.50;81.40;;;19.31;60.63;97754.91;5002154;28;19917;-82
2021/01/09 03:30:25;;;;;;;;;;;19.50;82.20;;;19.33;60.98;97758.22;5018173;28;20374;-81
2021/01/09 03:32:50;;;;;;;;;;;19.50;82.10;;;19.32;61.19;97760.13;4985845;28;20266;-82
2021/01/09 03:35:16;;;;;;;;;;;19.50;82.10;;;19.22;61.61;97753.59;5018468;28;20442;-82
2021/01/09 03:37:42;;;;;;;;;;;19.50;82.10;;;19.22;61.47;97756.31;4986155;28;20413;-83
2021/01/09 03:40:08;;;;;;;;;;;19.50;82.50;;;19.26;61.14;97739.25;4985496;28;19913;-83
2021/01/09 03:42:34;;;;;;;;;;;19.50;82.60;;;19.34;61.15;97757.97;4985637;28;19971;-82
2021/01/09 03:45:00;;;;;;;;;;;19.60;83.10;;;19.28;61.51;97745.28;4985732;28;19917;-82
2021/01/09 03:47:26;;;;;;;;;;;19.60;82.60;;;19.29;60.74;97751.56;5002139;28;19982;-82
2021/01/09 03:49:52;;;;;;;;;;;19.60;81.10;;;19.18;61.43;97741.47;4985131;28;20386;-80
2021/01/09 03:52:18;;;;;;;;;;;19.60;81.80;;;19.15;61.40;97748.25;5001308;28;19917;-80
2021/01/09 03:54:44;;;;;;;;;;;19.60;81.10;;;19.22;61.29;97759.06;5001283;28;20366;-81
2021/01/09 03:57:09;;;;;;;;;;;19.60;80.50;;;19.18;61.53;97755.94;5001623;28;19913;-81
2021/01/09 03:59:35;;;;;;;;;;;19.60;81.50;;;19.12;61.71;97761.53;5001375;28;19913;-81
2021/01/09 04:02:01;;;;;;;;;;;19.60;82.00;;;19.12;61.44;97759.59;4985008;28;19912;-81
2021/01/09 04:04:27;;;;;;;;;;;19.60;81.90;;;19.20;61.32;97764.75;4984839;28;20026;-81
2021/01/09 04:06:53;;;;;;;;;;;19.60;80.90;;;19.12;62.00;97754.16;5000768;28;20390;-80
2021/01/09 04:09:19;;;;;;;;;;;19.60;81.80;;;19.18;61.76;97763.28;5016321;28;19967;-80
2021/01/09 04:11:45;;;;;;;;;;;19.60;81.30;;;19.14;62.06;97764.84;4984379;28;19913;-80
2021/01/09 04:14:10;;;;;;;;;;;19.70;82.30;;;19.17;61.51;97759.72;5000665;28;19924;-80
2021/01/09 04:16:36;;;;;;;;;;;19.60;81.40;;;19.17;61.73;97769.84;5000495;28;20082;-79
2021/01/09 04:19:03;;;;;;;;;;;19.60;81.30;;;19.23;61.79;97772.44;5016875;28;20405;-80
2021/01/09 04:21:30;;;;;;;;;;;19.60;81.50;;;19.22;62.10;97772.69;4984615;28;19912;-81
2021/01/09 04:23:55;;;;;;;;;;;19.60;82.30;;;19.41;61.14;97769.63;4984792;28;19913;-81
2021/01/09 04:26:21;;;;;;;;;;;19.70;81.50;;;19.47;61.05;97765.16;5033619;28;20491;-81
2021/01/09 04:28:47;;;;;;;;;;;19.70;80.80;;;19.31;60.50;97766.66;5004938;28;19978;-81
2021/01/09 04:31:14;;;;;;;;;;;19.70;79.40;;;19.26;60.70;97772.00;4988838;28;20003;-80
2021/01/09 04:33:41;;;;;;;;;;;19.70;79.60;;;19.25;60.62;97775.78;4978459;28;19916;-79
2021/01/09 04:36:07;;;;;;;;;;;19.70;78.30;;;19.27;60.91;97776.38;4994598;28;20031;-80
2021/01/09 04:38:33;;;;;;;;;;;19.70;78.70;;;19.32;59.94;97776.50;4998351;28;19913;-80
2021/01/09 04:40:59;;;;;;;;;;;19.70;78.10;;;19.22;60.37;97770.81;5006560;28;20359;-82
2021/01/09 04:43:26;;;;;;;;;;;19.70;78.10;;;19.12;60.06;97786.91;4995537;28;19914;-81
2021/01/09 04:45:52;;;;;;;;;;;19.70;75.70;;;19.25;59.28;97783.97;5006152;28;19932;-81
2021/01/09 04:48:18;;;;;;;;;;;19.70;74.30;;;19.23;58.28;97783.38;4987450;28;19979;-80
2021/01/09 04:50:48;;;;;;;;;;;19.70;73.50;;;19.10;59.75;97781.69;4981726;28;20415;-81
2021/01/09 04:53:15;;;;;;;;;;;19.60;74.30;;;19.17;58.57;97794.41;4981385;28;20378;-81
2021/01/09 04:55:42;;;;;;;;;;;19.60;72.80;;;19.09;58.03;97790.09;4981401;28;19913;-81
2021/01/09 04:58:10;;;;;;;;;;;19.60;71.80;;;19.19;58.39;97790.34;4988703;28;19917;-80
2021/01/09 05:00:37;;;;;;;;;;;19.60;71.80;;;19.38;56.83;97781.00;4990920;28;20008;-81
2021/01/09 05:03:03;;;;;;;;;;;19.60;70.50;;;19.36;56.72;97777.69;4989336;28;19920;-81
2021/01/09 05:05:29;;;;;;;;;;;19.70;70.10;;;19.52;55.72;97790.69;4989071;28;19923;-81
2021/01/09 05:07:56;;;;;;;;;;;19.70;69.40;;;19.31;56.53;97784.94;5003756;28;19917;-81
2021/01/09 05:10:23;;;;;;;;;;;19.70;69.80;;;19.36;56.18;97783.16;4997531;28;19959;-80
2021/01/09 05:12:50;;;;;;;;;;;19.70;69.00;;;19.49;55.62;97784.84;4977196;28;19914;-81
2021/01/09 05:15:16;;;;;;;;;;;19.70;68.50;;;19.36;57.71;97793.25;4996731;28;20343;-80
2021/01/09 05:17:41;;;;;;;;;;;19.70;71.20;;;19.55;55.59;97794.00;5007827;28;19913;-80
2021/01/09 05:20:09;;;;;;;;;;;19.70;69.00;;;19.53;55.94;97792.31;4980177;28;19913;-81
2021/01/09 05:22:38;;;;;;;;;;;19.70;68.70;;;19.52;55.66;97787.13;5004749;28;19924;-81
2021/01/09 05:25:05;;;;;;;;;;;19.70;68.70;;;19.67;55.53;97803.88;5018312;28;20267;-80
2021/01/09 05:27:34;;;;;;;;;;;19.80;68.70;;;19.46;56.27;97793.53;5004996;28;19913;-81
2021/01/09 05:29:59;;;;;;;;;;;19.70;69.10;;;19.28;57.02;97802.59;5005583;28;19944;-81
2021/01/09 05:32:25;;;;;;;;;;;19.70;70.70;;;19.20;58.57;97805.69;4997631;28;19967;-79
2021/01/09 05:34:54;;;;;;;;;;;19.70;72.50;;;19.33;57.42;97804.63;5007443;28;20051;-81
2021/01/09 05:37:24;;;;;;;;;;;19.70;72.00;;;19.59;56.17;97804.19;4999220;28;19971;-80
2021/01/09 05:39:51;;;;;;;;;;;19.70;69.60;;;19.77;55.75;97806.00;5015117;28;19920;-80
2021/01/09 05:42:21;;;;;;;;;;;19.80;70.20;;;19.68;55.71;97805.53;5015690;28;19913;-80
2021/01/09 05:44:48;;;;;;;;;;;19.80;68.60;;;19.63;55.06;97807.31;5014750;28;20003;-80
2021/01/09 05:47:14;;;;;;;;;;;19.80;67.50;;;19.61;54.88;97817.63;5014815;28;19971;-80
2021/01/09 05:49:43;;;;;;;;;;;19.80;67.20;;;19.58;54.98;97808.03;4998283;28;19920;-80
2021/01/09 05:52:10;;;;;;;;;;;19.80;67.10;;;19.59;54.62;97814.28;5014710;28;20279;-80
2021/01/09 05:54:37;;;;;;;;;;;19.80;66.80;;;19.50;54.75;97808.34;5014905;28;20296;-79
2021/01/09 05:57:05;;;;;;;;;;;19.80;66.80;;;19.58;54.57;97818.94;5014028;28;19913;-79
2021/01/09 05:59:32;;;;;;;;;;;19.80;66.60;;;19.60;54.29;97822.25;5014413;28;19913;-80
2021/01/09 06:02:00;;;;;;;;;;;19.80;66.40;;;19.61;54.44;97836.75;5014708;28;19917;-80
2021/01/09 06:04:33;;;;;;;;;;;19.80;66.10;;;19.52;54.93;97834.38;4998193;28;19920;-80
2021/01/09 06:07:10;;;;;;;;;;;19.70;66.00;;;19.52;54.58;97831.66;5014945;28;19924;-79
2021/01/09 06:10:00;;;;;;;;;;;19.80;66.40;;;19.62;54.49;97832.97;4998648;28;20356;-80
2021/01/09 06:12:27;;;;;;;;;;;19.80;66.20;;;19.55;54.49;97835.78;4999208;28;19917;-80
2021/01/09 06:14:54;;;;;;;;;;;19.80;66.10;;;19.67;54.16;97849.47;4998983;28;19917;-80
2021/01/09 06:17:23;;;;;;;;;;;19.80;65.90;;;19.66;54.58;97851.38;5015016;28;19920;-80
2021/01/09 06:19:49;;;;;;;;;;;19.80;66.00;;;19.61;54.35;97858.59;5015461;28;20007;-81
2021/01/09 06:22:16;;;;;;;;;;;19.80;66.10;;;19.56;54.57;97848.38;5015012;28;20304;-81
2021/01/09 06:24:42;;;;;;;;;;;19.80;66.30;;;19.59;54.52;97858.00;5015378;28;19920;-81
2021/01/09 06:27:10;;;;;;;;;;;19.80;66.00;;;19.57;54.36;97860.13;4998940;28;19917;-81
2021/01/09 06:29:37;;;;;;;;;;;19.80;66.00;;;19.56;54.70;97869.41;5015087;28;19913;-81
2021/01/09 06:32:08;;;;;;;;;;;19.80;66.30;;;19.52;54.62;97872.59;4998470;28;19921;-80
2021/01/09 06:34:38;;;;;;;;;;;19.80;66.30;;;19.56;54.72;97877.59;4998617;28;19913;-81
2021/01/09 06:37:05;;;;;;;;;;;19.80;66.30;;;19.60;55.18;97887.81;4983555;28;19917;-79
2021/01/09 06:39:37;;;;;;;;;;;19.80;66.40;;;19.51;55.26;97883.75;4994733;28;20261;-80
2021/01/09 06:42:08;;;;;;;;;;;19.80;67.30;;;19.47;55.92;97877.09;4996732;28;19916;-80
2021/01/09 06:44:34;;;;;;;;;;;19.80;67.50;;;19.49;55.67;97881.25;4999412;28;19917;-82
2021/01/09 06:47:01;;;;;;;;;;;19.70;67.20;;;19.42;55.66;97888.69;4998731;28;19913;-83
2021/01/09 06:49:27;;;;;;;;;;;19.70;67.40;;;19.33;56.33;97881.06;4998259;28;20407;-81
2021/01/09 06:52:03;;;;;;;;;;;19.70;68.00;;;19.52;55.89;97890.88;5012767;28;20007;-81
2021/01/09 06:54:38;;;;;;;;;;;19.70;68.50;;;19.57;55.89;97896.47;5011520;28;19932;-80
2021/01/09 06:57:20;;;;;;;;;;;19.70;68.50;;;19.62;55.97;97906.69;5015132;28;20011;-80
2021/01/09 06:59:51;;;;;;;;;;;19.80;69.00;;;19.56;56.50;97897.53;5014300;28;19913;-80
2021/01/09 07:02:26;;;;;;;;;;;19.70;69.10;;;19.66;55.61;97907.88;5013980;28;19917;-81
2021/01/09 07:05:05;;;;;;;;;;;19.70;68.30;;;19.58;54.77;97900.88;5014340;28;20008;-81
2021/01/09 07:07:33;;;;;;;;;;;19.70;67.50;;;19.59;54.45;97902.53;4998186;28;20004;-81
2021/01/09 07:10:28;;;;;;;;;;;19.70;66.50;;;19.62;54.53;97907.53;5014437;28;19919;-82
2021/01/09 07:12:57;;;;;;;;;;;19.70;66.30;;;19.64;54.49;97904.53;5014015;28;20043;-77
2021/01/09 07:15:26;;;;;;;;;;;19.70;66.70;;;19.68;54.54;97905.75;5015274;28;19920;-78
2021/01/09 07:17:57;;;;;;;;;;;19.80;66.80;;;19.70;54.17;97917.28;4985381;28;19928;-78
2021/01/09 07:20:28;;;;;;;;;;;19.80;66.10;;;19.56;54.03;97886.63;5018285;28;19959;-81
2021/01/09 07:23:01;;;;;;;;;;;19.80;65.50;;;19.47;53.25;97902.50;5002251;28;19919;-80
2021/01/09 07:25:37;;;;;;;;;;;19.70;64.10;;;19.42;52.93;97909.72;5017804;28;20375;-80
2021/01/09 07:28:20;;;;;;;;;;;19.70;62.90;;;19.35;52.82;97904.34;5000654;28;19917;-79
2021/01/09 07:30:46;;;;;;;;;;;19.70;62.80;;;19.52;52.97;97907.28;5018960;28;19913;-79
2021/01/09 07:33:14;;;;;;;;;;;19.70;62.90;;;19.58;52.73;97921.91;4984238;28;19919;-80
2021/01/09 07:35:45;;;;;;;;;;;19.70;63.00;;;19.55;52.50;97914.16;5000928;28;20018;-79
2021/01/09 07:38:13;;;;;;;;;;;19.70;63.20;;;19.50;52.78;97917.59;4997294;28;20135;-79
2021/01/09 07:40:45;;;;;;;;;;;19.70;63.10;;;19.63;52.86;97922.03;4997258;28;20298;-79
2021/01/09 07:43:37;;;;;;;;;;;19.70;63.20;;;19.57;52.72;97931.16;4997272;28;20352;-80
2021/01/09 07:46:28;;;;;;;;;;;19.70;63.20;;;19.47;52.91;97920.78;4997177;28;19960;-79
2021/01/09 07:49:02;;;;;;;;;;;19.70;63.00;;;19.44;53.09;97913.00;5015477;28;19920;-79
2021/01/09 07:52:08;;;;;;;;;;;19.70;63.10;;;19.55;53.08;97925.06;5002627;28;19913;-80
2021/01/09 07:54:44;;;;;;;;;;;19.70;63.30;;;19.42;53.08;97913.28;5032498;28;19917;-79
2021/01/09 07:57:19;;;;;;;;;;;19.70;63.30;;;19.52;53.09;97938.16;5001366;28;19959;-78
2021/01/09 07:59:54;;;;;;;;;;;19.70;63.70;;;19.57;53.20;97934.72;5016645;28;19964;-81
2021/01/09 08:02:27;;;;;;;;;;;19.70;63.80;;;19.54;52.92;97929.69;5016930;28;20363;-82
2021/01/09 08:05:21;;;;;;;;;;;19.70;63.30;;;19.45;51.98;97925.63;5017009;28;19923;-81
2021/01/09 08:08:00;;;;;;;;;;;19.70;61.70;;;19.39;52.02;97932.84;4986792;28;19952;-80
2021/01/09 08:10:27;;;;;;;;;;;19.70;61.50;;;19.50;52.04;97931.22;4997175;28;19955;-81
2021/01/09 08:13:00;;;;;;;;;;;19.60;61.50;;;19.39;52.32;97930.09;5013108;28;19921;-81
2021/01/09 08:15:29;;;;;;;;;;;19.70;61.50;;;19.38;52.31;97917.50;4965212;28;19913;-81
2021/01/09 08:17:58;;;;;;;;;;;19.60;61.40;;;19.32;52.49;97926.66;4971742;28;19914;-81
2021/01/09 08:20:24;;;;;;;;;;;19.60;61.40;;;19.37;52.11;97943.16;5013078;28;19925;-80
2021/01/09 08:22:56;;;;;;;;;;;19.60;61.50;;;19.37;52.29;97948.63;5040271;28;20344;-80
2021/01/09 08:25:25;;;;;;;;;;;19.60;61.70;;;19.40;52.37;97945.41;5020424;28;19912;-81
2021/01/09 08:27:54;;;;;;;;;;;19.70;61.70;;;19.46;52.19;97960.06;5019710;28;19962;-82
2021/01/09 08:30:50;;;;;;;;;;;19.60;61.80;;;19.45;52.17;97961.97;5019942;28;19927;-81
2021/01/09 08:33:16;;;;;;;;;;;19.60;61.80;;;19.36;52.48;97955.16;5032511;28;19912;-81
2021/01/09 08:35:47;;;;;;;;;;;19.60;62.10;;;19.49;52.51;97963.16;5003149;28;19931;-81
2021/01/09 08:38:14;;;;;;;;;;;19.70;62.00;;;19.51;52.33;97955.59;5019410;28;20018;-81
2021/01/09 08:40:42;;;;;;;;;;;19.70;62.00;;;19.38;52.48;97950.28;5019648;28;19913;-81
2021/01/09 08:43:13;;;;;;;;;;;19.70;62.10;;;19.53;52.48;97939.78;5020054;28;19912;-81
2021/01/09 08:45:53;;;;;;;;;;;19.70;62.20;;;19.56;52.07;97948.59;5036351;28;20364;-82
2021/01/09 08:48:24;;;;;;;;;;;19.70;62.20;;;19.53;52.55;97950.72;5020590;28;20011;-83
2021/01/09 08:50:57;;;;;;;;;;;19.70;62.40;;;19.44;52.15;97949.38;5036438;28;20318;-81
2021/01/09 08:53:28;;;;;;;;;;;19.70;62.20;;;19.65;52.27;97955.38;5036020;28;20401;-82
2021/01/09 08:56:04;;;;;;;;;;;19.70;62.40;;;19.68;51.96;97938.53;5036409;28;19913;-82
2021/01/09 08:58:31;;;;;;;;;;;19.70;62.60;;;19.66;52.29;97940.66;5004832;28;19913;-83
2021/01/09 09:01:01;;;;;;;;;;;19.70;62.60;;;19.63;52.45;97946.59;5019299;28;19919;-83
2021/01/09 09:03:28;;;;;;;;;;;19.70;62.60;;;19.66;52.61;97940.66;5019218;28;19912;-81
2021/01/09 09:05:55;;;;;;;;;;;19.80;62.70;;;19.69;52.41;97948.41;5002680;28;20371;-81
2021/01/09 09:08:22;;;;;;;;;;;19.80;62.70;;;19.74;52.50;97948.53;5019028;28;19920;-81
2021/01/09 09:10:48;;;;;;;;;;;19.80;62.90;;;19.76;52.33;97943.66;5018984;28;19913;-81
2021/01/09 09:13:22;;;;;;;;;;;19.70;63.00;;;19.69;52.94;97945.69;5002636;28;19935;-81
2021/01/09 09:15:50;;;;;;;;;;;19.80;63.10;;;19.87;52.49;97960.06;5019564;28;20007;-82
2021/01/09 09:18:16;;;;;;;;;;;19.80;63.10;;;19.82;52.54;97948.19;5002547;28;19912;-81
2021/01/09 09:20:51;;;;;;;;;;;19.80;63.20;;;19.83;52.29;97953.41;5018855;28;19947;-81
2021/01/09 09:23:19;;;;;;;;;;;19.80;63.30;;;19.84;52.17;97946.88;4999864;28;19922;-81
2021/01/09 09:25:46;;;;;;;;;;;19.80;63.30;;;19.90;52.40;97948.66;4982530;28;20399;-81
2021/01/09 09:28:12;;;;;;;;;;;19.80;63.40;;;19.88;52.51;97945.34;4999509;28;19921;-82
2021/01/09 09:30:38;;;;;;;;;;;19.90;63.60;;;19.95;52.75;97943.31;4977166;28;19939;-81
2021/01/09 09:33:14;;;;;;;;;;;19.80;63.50;;;19.94;52.43;97947.16;5002336;28;20283;-82
2021/01/09 09:35:41;;;;;;;;;;;19.90;63.80;;;19.94;52.82;97938.13;4991214;28;20279;-82
2021/01/09 09:38:10;;;;;;;;;;;19.90;63.80;;;20.01;52.54;97933.34;4989561;28;20286;-81
2021/01/09 09:40:38;;;;;;;;;;;19.90;63.90;;;20.06;52.75;97932.63;4988766;28;19976;-81
2021/01/09 09:43:19;;;;;;;;;;;19.90;63.90;;;20.11;52.15;97927.28;4972770;28;19925;-81
2021/01/09 09:45:59;;;;;;;;;;;19.90;64.00;;;20.02;52.58;97915.91;4989766;28;19920;-82
2021/01/09 09:48:37;;;;;;;;;;;19.90;64.10;;;20.17;52.42;97926.34;5004355;28;19913;-82
2021/01/09 09:51:08;;;;;;;;;;;19.90;64.30;;;20.12;52.59;97894.28;5019763;28;19919;-81
2021/01/09 09:53:36;;;;;;;;;;;19.90;64.30;;;20.15;52.49;97910.22;4990691;28;19960;-81
2021/01/09 09:56:42;;;;;;;;;;;19.90;64.40;;;20.14;52.67;97913.16;5004248;28;19936;-81
2021/01/09 09:59:11;;;;;;;;;;;19.90;64.60;;;20.10;52.85;97901.91;4966865;28;20386;-81
2021/01/09 10:01:38;;;;;;;;;;;20.00;64.70;;;20.16;52.73;97898.19;5003659;28;20329;-80
2021/01/09 10:04:14;;;;;;;;;;;20.00;64.70;;;20.18;53.07;97900.69;4995094;28;19940;-80
2021/01/09 10:06:40;;;;;;;;;;;20.00;64.90;;;20.16;53.00;97889.97;5004764;28;19917;-79
2021/01/09 10:09:15;;;;;;;;;;;20.00;65.00;;;20.19;53.14;97880.50;4992095;28;19920;-81
2021/01/09 10:11:42;;;;;;;;;;;20.00;65.10;;;20.15;53.01;97880.16;4990813;28;19917;-80
2021/01/09 10:14:08;;;;;;;;;;;20.00;65.30;;;20.20;53.36;97873.97;5006846;28;19913;-80
2021/01/09 10:16:34;;;;;;;;;;;20.00;65.40;;;20.27;52.93;97878.22;5004964;28;20249;-81
2021/01/09 10:19:00;;;;;;;;;;;20.00;65.40;;;20.31;52.80;97867.69;4996185;28;19921;-80
2021/01/09 10:21:28;;;;;;;;;;;20.00;65.50;;;20.31;53.15;97862.22;4986609;28;19968;-81
2021/01/09 10:23:56;;;;;;;;;;;20.00;65.60;;;20.30;53.14;97876.91;4992224;28;20011;-80
2021/01/09 10:26:31;;;;;;;;;;;20.10;65.80;;;20.32;53.29;97872.88;5004398;28;19920;-79
2021/01/09 10:28:58;;;;;;;;;;;20.00;65.90;;;20.38;53.32;97876.56;4988524;28;19959;-80
2021/01/09 10:31:38;;;;;;;;;;;20.10;66.20;;;20.34;53.52;97878.97;5002650;28;19956;-84
2021/01/09 10:34:07;;;;;;;;;;;20.10;66.20;;;20.36;53.24;97874.06;5000112;28;19919;-86
2021/01/09 10:36:38;;;;;;;;;;;20.10;66.40;;;20.38;53.70;97878.47;4989797;28;20347;-81
2021/01/09 10:39:05;;;;;;;;;;;20.10;66.50;;;20.45;53.39;97863.63;5004814;28;20000;-81
2021/01/09 10:41:31;;;;;;;;;;;20.10;66.50;;;20.46;53.46;97858.97;4986582;28;20003;-82
2021/01/09 10:43:57;;;;;;;;;;;20.10;66.70;;;20.37;54.77;97858.50;4990195;28;19920;-79
2021/01/09 10:46:26;;;;;;;;;;;20.10;68.70;;;20.23;54.84;97860.63;5003258;28;19948;-80
2021/01/09 10:48:52;;;;;;;;;;;20.10;68.20;;;20.32;54.62;97856.47;4984826;28;20004;-84
2021/01/09 10:51:20;;;;;;;;;;;20.10;68.00;;;20.31;54.38;97851.28;4983369;28;19967;-80
2021/01/09 10:53:47;;;;;;;;;;;20.20;67.90;;;20.23;54.83;97855.16;5009260;28;19932;-76
2021/01/09 10:56:13;;;;;;;;;;;20.20;67.70;;;20.24;54.63;97856.00;4989925;28;20368;-77
2021/01/09 10:58:39;;;;;;;;;;;20.20;67.20;;;20.34;53.41;97846.16;5009809;28;19949;-80
2021/01/09 11:01:05;;;;;;;;;;;20.20;66.10;;;20.39;52.83;97841.84;4985711;28;19927;-80
2021/01/09 11:03:31;;;;;;;;;;;20.20;65.40;;;20.39;51.47;97848.16;5001934;28;19913;-79
2021/01/09 11:05:57;;;;;;;;;;;20.20;63.80;;;20.43;49.73;97845.75;5018314;28;19920;-79
2021/01/09 11:08:24;;;;;;;;;;;20.20;59.90;;;20.32;48.17;97837.34;4985428;28;19924;-78
2021/01/09 11:10:50;;;;;;;;;;;20.20;57.90;;;20.34;47.92;97837.13;5001685;28;20379;-79
2021/01/09 11:13:15;;;;;;;;;;;20.20;57.40;;;20.31;47.66;97841.16;5017872;28;19909;-79
2021/01/09 11:15:46;;;;;;;;;;;20.20;57.50;;;20.44;47.45;97842.78;5001516;28;19912;-79
2021/01/09 11:18:13;;;;;;;;;;;20.20;56.80;;;20.45;47.52;97846.38;5018082;28;20004;-79
2021/01/09 11:20:39;;;;;;;;;;;20.20;57.10;;;20.43;47.66;97845.75;5017780;28;19913;-79
2021/01/09 11:23:05;;;;;;;;;;;20.20;57.20;;;20.40;48.37;97849.00;5001526;28;19963;-79
2021/01/09 11:25:32;;;;;;;;;;;20.30;57.60;;;20.37;48.38;97842.09;5001132;28;20004;-79